Time;durP1;ratioP1;P1;durP2;ratioP2;P2;SDS_P1;SDS_P2;PMS_P1;PMS_P2;Temp;Humidity;BMP_temperature;BMP_pressure;BME280_temperature;BME280_humidity;BME280_pressure;Samples;Min_cycle;Max_cycle;Signal;HPM_P1;HPM_P2
2021/06/09 00:00:46;;;;;;;16.63;13.05;;;;;;;;;;5048155;28;20091;-75
2021/06/09 00:03:11;;;;;;;15.00;11.93;;;;;;;;;;5057368;28;20727;-75
2021/06/09 00:05:37;;;;;;;14.65;13.00;;;;;;;;;;5049208;28;20523;-75
2021/06/09 00:08:02;;;;;;;14.75;12.20;;;;;;;;;;5062156;28;20363;-74
2021/06/09 00:10:27;;;;;;;15.05;12.45;;;;;;;;;;5058709;28;20060;-74
2021/06/09 00:12:52;;;;;;;15.45;12.52;;;;;;;;;;5043249;28;20428;-75
2021/06/09 00:15:18;;;;;;;16.25;12.95;;;;;;;;;;5059089;28;20066;-75
2021/06/09 00:17:43;;;;;;;14.43;12.23;;;;;;;;;;5051503;28;20017;-74
2021/06/09 00:20:09;;;;;;;14.77;13.05;;;;;;;;;;5047977;28;20031;-75
2021/06/09 00:22:35;;;;;;;15.00;12.25;;;;;;;;;;5047291;28;20032;-75
2021/06/09 00:25:00;;;;;;;16.67;13.25;;;;;;;;;;5052303;28;20032;-76
2021/06/09 00:27:26;;;;;;;17.60;13.55;;;;;;;;;;5056327;28;20032;-75
2021/06/09 00:29:51;;;;;;;14.75;13.10;;;;;;;;;;5047168;28;20413;-74
2021/06/09 00:32:17;;;;;;;15.65;13.13;;;;;;;;;;5052985;28;20043;-74
2021/06/09 00:34:42;;;;;;;16.58;13.65;;;;;;;;;;5056724;28;20202;-74
2021/06/09 00:37:07;;;;;;;16.02;13.25;;;;;;;;;;5059438;28;20044;-74
2021/06/09 00:39:32;;;;;;;15.80;12.77;;;;;;;;;;5058156;28;20025;-75
2021/06/09 00:41:57;;;;;;;16.00;12.70;;;;;;;;;;5050294;28;20907;-74
2021/06/09 00:44:23;;;;;;;18.08;14.25;;;;;;;;;;5054120;28;20032;-74
2021/06/09 00:46:48;;;;;;;15.68;12.82;;;;;;;;;;5063284;28;20103;-75
2021/06/09 00:49:13;;;;;;;16.88;13.50;;;;;;;;;;5056836;28;20373;-74
2021/06/09 00:51:38;;;;;;;15.80;13.00;;;;;;;;;;5050784;28;20116;-74
2021/06/09 00:54:04;;;;;;;17.65;14.38;;;;;;;;;;5063615;28;20020;-74
2021/06/09 00:56:30;;;;;;;17.65;13.95;;;;;;;;;;5054846;28;20021;-74
2021/06/09 00:58:55;;;;;;;17.48;14.43;;;;;;;;;;5057741;28;20332;-74
2021/06/09 01:01:22;;;;;;;19.90;15.05;;;;;;;;;;5055485;28;20048;-74
2021/06/09 01:03:47;;;;;;;18.05;14.73;;;;;;;;;;5057204;28;20035;-75
2021/06/09 01:06:13;;;;;;;18.58;14.73;;;;;;;;;;5050732;28;20437;-75
2021/06/09 01:08:38;;;;;;;17.42;13.80;;;;;;;;;;5057877;28;20032;-74
2021/06/09 01:11:05;;;;;;;17.33;13.60;;;;;;;;;;5052851;28;20096;-75
2021/06/09 01:13:31;;;;;;;15.35;13.70;;;;;;;;;;5053872;28;20518;-75
2021/06/09 01:15:56;;;;;;;16.10;14.00;;;;;;;;;;5047583;28;20060;-75
2021/06/09 01:18:22;;;;;;;17.85;13.38;;;;;;;;;;5060842;28;20084;-74
2021/06/09 01:20:47;;;;;;;15.63;13.63;;;;;;;;;;5051613;28;20024;-75
2021/06/09 01:23:12;;;;;;;17.13;14.73;;;;;;;;;;5051716;28;20112;-75
2021/06/09 01:25:38;;;;;;;17.17;14.05;;;;;;;;;;5048298;28;20118;-75
2021/06/09 01:28:03;;;;;;;21.30;14.25;;;;;;;;;;5049304;28;20037;-75
2021/06/09 01:30:29;;;;;;;17.13;14.00;;;;;;;;;;5049265;28;20115;-75
2021/06/09 01:32:55;;;;;;;16.67;14.50;;;;;;;;;;5047998;28;20056;-74
2021/06/09 01:35:20;;;;;;;17.35;14.98;;;;;;;;;;5062052;28;20024;-74
2021/06/09 01:37:45;;;;;;;16.52;14.38;;;;;;;;;;5040367;28;20017;-74
2021/06/09 01:40:12;;;;;;;18.30;14.90;;;;;;;;;;5037991;28;20033;-75
2021/06/09 01:42:38;;;;;;;18.15;14.80;;;;;;;;;;5055558;28;20025;-74
2021/06/09 01:45:04;;;;;;;19.63;14.80;;;;;;;;;;5049043;28;20056;-75
2021/06/09 01:47:29;;;;;;;18.90;14.80;;;;;;;;;;5062348;28;20440;-74
2021/06/09 01:49:54;;;;;;;16.85;14.20;;;;;;;;;;5055986;28;20031;-74
2021/06/09 01:52:20;;;;;;;16.48;14.20;;;;;;;;;;5051383;28;20017;-73
2021/06/09 01:54:46;;;;;;;17.33;14.18;;;;;;;;;;5059202;28;20108;-74
2021/06/09 01:57:12;;;;;;;19.17;15.32;;;;;;;;;;5064331;28;20056;-75
2021/06/09 01:59:38;;;;;;;23.60;14.75;;;;;;;;;;5048853;28;20025;-74
2021/06/09 02:02:03;;;;;;;18.77;15.50;;;;;;;;;;5048349;28;20516;-74
2021/06/09 02:04:28;;;;;;;18.75;14.35;;;;;;;;;;5053432;28;20040;-75
2021/06/09 02:06:54;;;;;;;20.98;15.02;;;;;;;;;;5048306;28;20044;-74
2021/06/09 02:09:20;;;;;;;19.40;15.43;;;;;;;;;;5054557;28;20029;-74
2021/06/09 02:11:46;;;;;;;17.25;14.80;;;;;;;;;;5051981;28;20470;-74
2021/06/09 02:14:12;;;;;;;19.27;15.98;;;;;;;;;;5049247;28;20032;-74
2021/06/09 02:16:39;;;;;;;18.65;15.52;;;;;;;;;;5047693;28;20293;-74
2021/06/09 02:19:05;;;;;;;19.00;15.18;;;;;;;;;;5056075;28;20029;-75
2021/06/09 02:21:33;;;;;;;18.98;14.93;;;;;;;;;;5048451;28;20033;-73
2021/06/09 02:23:58;;;;;;;19.70;14.57;;;;;;;;;;5049602;28;20191;-73
2021/06/09 02:26:24;;;;;;;18.25;15.25;;;;;;;;;;5029416;28;20157;-73
2021/06/09 02:28:49;;;;;;;20.77;15.55;;;;;;;;;;5047704;28;20017;-74
2021/06/09 02:31:17;;;;;;;19.00;15.43;;;;;;;;;;5047948;28;20017;-74
2021/06/09 02:33:43;;;;;;;17.55;14.52;;;;;;;;;;5048186;28;20067;-74
2021/06/09 02:36:08;;;;;;;18.50;14.95;;;;;;;;;;5049748;28;20024;-73
2021/06/09 02:38:37;;;;;;;18.70;14.65;;;;;;;;;;5049413;28;20025;-74
2021/06/09 02:41:02;;;;;;;17.65;15.32;;;;;;;;;;5054987;28;20035;-74
2021/06/09 02:43:31;;;;;;;18.58;15.20;;;;;;;;;;5052218;28;20017;-75
2021/06/09 02:45:57;;;;;;;17.83;14.82;;;;;;;;;;5065614;28;20337;-75
2021/06/09 02:48:24;;;;;;;18.65;14.30;;;;;;;;;;5049805;28;20175;-74
2021/06/09 02:50:49;;;;;;;18.58;16.33;;;;;;;;;;5048345;28;20499;-76
2021/06/09 02:53:21;;;;;;;18.35;15.80;;;;;;;;;;5051599;28;20155;-75
2021/06/09 02:56:02;;;;;;;20.58;16.10;;;;;;;;;;5054050;28;20040;-75
2021/06/09 02:58:45;;;;;;;19.67;15.32;;;;;;;;;;5037953;28;20021;-75
2021/06/09 03:01:15;;;;;;;20.73;16.10;;;;;;;;;;5052224;28;20029;-74
2021/06/09 03:03:50;;;;;;;20.20;15.50;;;;;;;;;;5055321;28;20017;-75
2021/06/09 03:06:34;;;;;;;19.05;15.65;;;;;;;;;;5048843;28;20556;-75
2021/06/09 03:09:02;;;;;;;21.08;16.50;;;;;;;;;;5060737;28;20032;-74
2021/06/09 03:11:50;;;;;;;19.05;15.65;;;;;;;;;;5058329;28;20025;-73
2021/06/09 03:17:01;;;;;;;21.00;16.20;;;;;;;;;;5052555;28;20032;-74
2021/06/09 03:19:35;;;;;;;23.95;17.30;;;;;;;;;;5047881;28;20127;-74
2021/06/09 03:22:21;;;;;;;21.00;16.50;;;;;;;;;;5045215;28;20056;-74
2021/06/09 03:24:47;;;;;;;20.08;15.95;;;;;;;;;;5039814;28;20054;-73
2021/06/09 03:27:17;;;;;;;19.23;15.90;;;;;;;;;;5030488;28;20444;-74
2021/06/09 03:29:43;;;;;;;20.70;17.00;;;;;;;;;;5046347;28;20025;-74
2021/06/09 03:32:11;;;;;;;20.08;16.63;;;;;;;;;;5056191;28;20028;-75
2021/06/09 03:34:45;;;;;;;20.17;15.93;;;;;;;;;;5054660;28;20037;-74
2021/06/09 03:37:14;;;;;;;21.17;16.33;;;;;;;;;;5026851;28;20111;-74
2021/06/09 03:39:40;;;;;;;22.88;16.88;;;;;;;;;;5046331;28;20017;-74
2021/06/09 03:42:07;;;;;;;19.13;15.70;;;;;;;;;;5053295;28;20149;-75
2021/06/09 03:44:34;;;;;;;21.20;15.80;;;;;;;;;;5052675;28;20115;-75
2021/06/09 03:47:00;;;;;;;21.30;16.48;;;;;;;;;;5054261;28;20040;-74
2021/06/09 03:49:26;;;;;;;20.20;16.45;;;;;;;;;;5060655;28;20463;-74
2021/06/09 03:51:52;;;;;;;20.88;16.50;;;;;;;;;;5047301;28;20057;-73
2021/06/09 03:54:18;;;;;;;21.60;16.75;;;;;;;;;;5047215;28;20080;-74
2021/06/09 03:56:44;;;;;;;22.15;16.63;;;;;;;;;;5053493;28;20028;-74
2021/06/09 03:59:10;;;;;;;22.38;17.40;;;;;;;;;;5052935;28;20029;-74
2021/06/09 04:01:39;;;;;;;21.42;17.58;;;;;;;;;;5041785;28;20116;-75
2021/06/09 04:04:05;;;;;;;24.42;17.55;;;;;;;;;;5054414;28;20401;-76
2021/06/09 04:06:31;;;;;;;19.90;16.73;;;;;;;;;;5033914;28;20029;-75
2021/06/09 04:08:57;;;;;;;24.60;18.27;;;;;;;;;;5052582;28;20032;-75
2021/06/09 04:11:22;;;;;;;20.08;16.45;;;;;;;;;;5049426;28;20021;-75
2021/06/09 04:13:49;;;;;;;20.85;16.80;;;;;;;;;;5051929;28;20028;-75
2021/06/09 04:16:15;;;;;;;19.35;15.88;;;;;;;;;;5051008;28;20581;-74
2021/06/09 04:18:44;;;;;;;20.65;16.38;;;;;;;;;;5049101;28;20094;-74
2021/06/09 04:21:10;;;;;;;19.48;16.08;;;;;;;;;;5062134;28;20052;-76
2021/06/09 04:23:36;;;;;;;23.73;15.65;;;;;;;;;;5062014;28;20024;-74
2021/06/09 04:26:01;;;;;;;19.88;15.38;;;;;;;;;;5052857;28;20101;-75
2021/06/09 04:28:27;;;;;;;18.42;15.43;;;;;;;;;;5061764;28;20480;-75
2021/06/09 04:30:52;;;;;;;18.00;14.90;;;;;;;;;;5055368;28;20515;-74
2021/06/09 04:33:17;;;;;;;17.50;14.15;;;;;;;;;;5051290;28;20049;-74
2021/06/09 04:35:44;;;;;;;15.38;13.48;;;;;;;;;;5069161;28;20141;-74
2021/06/09 04:38:14;;;;;;;15.82;13.50;;;;;;;;;;5048191;28;20158;-74
2021/06/09 04:40:40;;;;;;;16.05;13.65;;;;;;;;;;5050583;28;20038;-75
2021/06/09 04:43:05;;;;;;;14.70;12.70;;;;;;;;;;5060109;28;20021;-75
2021/06/09 04:45:30;;;;;;;14.77;12.30;;;;;;;;;;5057857;28;20140;-75
2021/06/09 04:47:56;;;;;;;16.38;13.32;;;;;;;;;;5049459;28;20028;-75
2021/06/09 04:50:23;;;;;;;15.32;13.50;;;;;;;;;;5052888;28;20488;-74
2021/06/09 04:52:49;;;;;;;15.30;12.80;;;;;;;;;;5058109;28;20020;-75
2021/06/09 04:55:14;;;;;;;15.38;12.07;;;;;;;;;;5053823;28;20024;-73
2021/06/09 04:57:39;;;;;;;15.20;13.25;;;;;;;;;;5052185;28;20120;-74
2021/06/09 05:00:06;;;;;;;17.13;13.02;;;;;;;;;;5051987;28;20025;-75
2021/06/09 05:02:31;;;;;;;14.85;12.80;;;;;;;;;;5063127;28;20020;-74
2021/06/09 05:04:56;;;;;;;15.82;12.88;;;;;;;;;;5057547;28;20037;-74
2021/06/09 05:07:22;;;;;;;15.18;12.93;;;;;;;;;;5052436;28;20384;-74
2021/06/09 05:09:47;;;;;;;15.52;12.70;;;;;;;;;;5054721;28;20055;-74
2021/06/09 05:12:17;;;;;;;16.73;12.47;;;;;;;;;;5071002;28;20027;-76
2021/06/09 05:14:54;;;;;;;13.82;11.57;;;;;;;;;;5055422;28;20777;-76
2021/06/09 05:17:22;;;;;;;14.45;11.65;;;;;;;;;;5052440;28;20091;-75
2021/06/09 05:19:48;;;;;;;14.80;11.95;;;;;;;;;;5049288;28;20055;-76
2021/06/09 05:22:16;;;;;;;16.35;12.25;;;;;;;;;;5063324;28;20077;-76
2021/06/09 05:24:42;;;;;;;13.88;11.77;;;;;;;;;;5065069;28;20029;-75
2021/06/09 05:27:11;;;;;;;14.18;12.30;;;;;;;;;;5059277;28;20017;-75
2021/06/09 05:29:37;;;;;;;14.50;10.73;;;;;;;;;;5057707;28;20067;-76
2021/06/09 05:32:03;;;;;;;14.02;10.80;;;;;;;;;;5032395;28;20029;-75
2021/06/09 05:34:28;;;;;;;13.98;11.88;;;;;;;;;;5065177;28;20044;-75
2021/06/09 05:36:54;;;;;;;12.70;11.15;;;;;;;;;;5058687;28;20087;-76
2021/06/09 05:39:19;;;;;;;14.07;12.13;;;;;;;;;;5043702;28;20089;-76
2021/06/09 05:41:45;;;;;;;14.73;11.20;;;;;;;;;;5044240;28;20021;-75
2021/06/09 05:44:14;;;;;;;13.95;10.93;;;;;;;;;;5042373;28;20052;-74
2021/06/09 05:46:39;;;;;;;13.90;10.93;;;;;;;;;;5025220;28;20028;-75
2021/06/09 05:49:05;;;;;;;14.40;11.77;;;;;;;;;;5045239;28;20029;-75
2021/06/09 05:51:30;;;;;;;14.52;11.00;;;;;;;;;;5043423;28;20033;-75
2021/06/09 05:53:55;;;;;;;17.67;10.80;;;;;;;;;;5042682;28;20100;-76
2021/06/09 05:56:20;;;;;;;15.75;11.63;;;;;;;;;;5027833;28;20762;-76
2021/06/09 05:58:46;;;;;;;14.68;11.40;;;;;;;;;;5041063;28;20414;-76
2021/06/09 06:01:11;;;;;;;15.30;11.98;;;;;;;;;;5044113;28;20445;-76
2021/06/09 06:03:40;;;;;;;14.80;12.05;;;;;;;;;;5042535;28;20059;-75
2021/06/09 06:06:09;;;;;;;14.98;11.52;;;;;;;;;;5043862;28;20029;-74
2021/06/09 06:08:35;;;;;;;13.68;11.90;;;;;;;;;;5043814;28;20029;-76
2021/06/09 06:11:01;;;;;;;13.45;11.18;;;;;;;;;;5052678;28;20016;-76
2021/06/09 06:13:27;;;;;;;12.60;10.73;;;;;;;;;;5045856;28;20021;-76
2021/06/09 06:15:55;;;;;;;12.50;10.77;;;;;;;;;;5050493;28;20416;-75
2021/06/09 06:18:37;;;;;;;12.67;11.27;;;;;;;;;;5050333;28;20495;-76
2021/06/09 06:21:03;;;;;;;12.75;10.38;;;;;;;;;;5050298;28;20112;-76
2021/06/09 06:23:28;;;;;;;15.88;10.68;;;;;;;;;;5050222;28;20097;-77
2021/06/09 06:25:54;;;;;;;14.48;10.43;;;;;;;;;;5049758;28;20547;-78
2021/06/09 06:28:19;;;;;;;12.32;11.00;;;;;;;;;;5050461;28;20070;-76
2021/06/09 06:30:45;;;;;;;13.18;10.75;;;;;;;;;;5049643;28;20021;-77
2021/06/09 06:33:10;;;;;;;13.07;10.20;;;;;;;;;;5054368;28;20484;-76
2021/06/09 06:35:36;;;;;;;13.32;9.77;;;;;;;;;;5056393;28;20162;-77
2021/06/09 06:38:01;;;;;;;12.90;10.57;;;;;;;;;;5050140;28;20039;-76
2021/06/09 06:40:28;;;;;;;13.85;9.35;;;;;;;;;;5053160;28;20017;-76
2021/06/09 06:42:53;;;;;;;13.65;10.25;;;;;;;;;;5050558;28;20023;-76
2021/06/09 06:45:21;;;;;;;11.77;10.52;;;;;;;;;;5060668;28;20479;-77
2021/06/09 06:47:46;;;;;;;11.57;10.35;;;;;;;;;;5069705;28;20483;-76
2021/06/09 06:50:13;;;;;;;12.45;9.88;;;;;;;;;;5058996;28;20086;-76
2021/06/09 06:52:40;;;;;;;11.98;10.20;;;;;;;;;;5056759;28;20028;-77
2021/06/09 06:55:06;;;;;;;11.68;9.00;;;;;;;;;;5061586;28;20103;-76
2021/06/09 06:57:31;;;;;;;10.68;8.82;;;;;;;;;;5048105;28;20104;-76
2021/06/09 06:59:58;;;;;;;11.85;9.50;;;;;;;;;;5050898;28;20040;-76
2021/06/09 07:02:23;;;;;;;11.20;9.40;;;;;;;;;;5038217;28;20020;-77
2021/06/09 07:04:48;;;;;;;11.50;9.40;;;;;;;;;;5051761;28;20044;-76
2021/06/09 07:07:14;;;;;;;9.83;8.83;;;;;;;;;;5051649;28;20100;-75
2021/06/09 07:09:39;;;;;;;14.82;10.50;;;;;;;;;;5060187;28;20872;-76
2021/06/09 07:12:04;;;;;;;12.65;10.90;;;;;;;;;;5050077;28;20021;-76
2021/06/09 07:14:30;;;;;;;14.77;11.10;;;;;;;;;;5049656;28;20029;-76
2021/06/09 07:16:56;;;;;;;12.93;10.27;;;;;;;;;;5049937;28;20033;-76
2021/06/09 07:19:21;;;;;;;14.38;10.90;;;;;;;;;;5068549;28;20056;-75
2021/06/09 07:21:46;;;;;;;12.90;9.80;;;;;;;;;;5056034;28;20021;-76
2021/06/09 07:24:11;;;;;;;13.27;10.95;;;;;;;;;;5068852;28;20452;-75
2021/06/09 07:26:40;;;;;;;11.82;9.82;;;;;;;;;;5050441;28;20081;-76
2021/06/09 07:29:06;;;;;;;12.98;10.05;;;;;;;;;;5055751;28;20108;-75
2021/06/09 07:31:32;;;;;;;14.90;11.55;;;;;;;;;;5048333;28;20124;-75
2021/06/09 07:33:58;;;;;;;14.18;12.15;;;;;;;;;;5063897;28;20058;-76
2021/06/09 07:36:25;;;;;;;14.05;11.52;;;;;;;;;;5063398;28;20107;-75
2021/06/09 07:38:55;;;;;;;14.18;11.60;;;;;;;;;;5055839;28;20020;-76
2021/06/09 07:41:21;;;;;;;16.80;12.18;;;;;;;;;;5057191;28;20024;-75
2021/06/09 07:43:48;;;;;;;15.93;11.80;;;;;;;;;;5048996;28;20032;-75
2021/06/09 07:46:15;;;;;;;16.05;12.50;;;;;;;;;;5047968;28;20024;-75
2021/06/09 07:48:41;;;;;;;15.68;12.30;;;;;;;;;;5048660;28;20025;-75
2021/06/09 07:51:08;;;;;;;13.63;11.18;;;;;;;;;;5051314;28;20032;-76
2021/06/09 07:53:35;;;;;;;15.20;11.35;;;;;;;;;;5049409;28;20522;-76
2021/06/09 07:56:00;;;;;;;13.77;11.90;;;;;;;;;;5052704;28;20032;-77
2021/06/09 07:58:28;;;;;;;14.95;11.73;;;;;;;;;;5050934;28;20368;-76
2021/06/09 08:00:54;;;;;;;14.00;10.43;;;;;;;;;;5049319;28;20041;-75
2021/06/09 08:03:23;;;;;;;13.05;10.93;;;;;;;;;;5046905;28;20031;-76
2021/06/09 08:05:48;;;;;;;16.52;11.77;;;;;;;;;;5053751;28;20448;-78
2021/06/09 08:08:14;;;;;;;15.00;11.07;;;;;;;;;;5048157;28;20059;-77
2021/06/09 08:10:40;;;;;;;12.60;10.27;;;;;;;;;;5055557;28;20108;-77
2021/06/09 08:13:06;;;;;;;15.32;11.13;;;;;;;;;;5048916;28;20018;-78
2021/06/09 08:15:31;;;;;;;14.23;11.13;;;;;;;;;;5050726;28;20035;-78
2021/06/09 08:17:57;;;;;;;15.10;10.93;;;;;;;;;;5062191;28;20021;-77
2021/06/09 08:20:23;;;;;;;16.05;11.55;;;;;;;;;;5059123;28;20056;-78
2021/06/09 08:22:49;;;;;;;14.23;11.35;;;;;;;;;;5052441;28;20021;-78
2021/06/09 08:25:16;;;;;;;13.77;11.38;;;;;;;;;;5045845;28;20095;-79
2021/06/09 08:27:42;;;;;;;14.20;10.95;;;;;;;;;;5041251;28;20021;-77
2021/06/09 08:30:07;;;;;;;17.73;11.82;;;;;;;;;;5054157;28;20569;-79
2021/06/09 08:32:33;;;;;;;15.82;12.10;;;;;;;;;;5053516;28;20025;-80
2021/06/09 08:34:58;;;;;;;17.90;11.75;;;;;;;;;;5053230;28;20053;-78
2021/06/09 08:37:26;;;;;;;15.68;12.68;;;;;;;;;;5064038;28;20130;-80
2021/06/09 08:39:51;;;;;;;18.48;12.60;;;;;;;;;;5048514;28;20056;-80
2021/06/09 08:42:17;;;;;;;15.63;12.30;;;;;;;;;;5048522;28;20071;-82
2021/06/09 08:44:43;;;;;;;15.63;13.25;;;;;;;;;;5050951;28;20300;-79
2021/06/09 08:47:09;;;;;;;18.40;12.32;;;;;;;;;;5051703;28;20467;-78
2021/06/09 08:49:36;;;;;;;16.55;13.30;;;;;;;;;;5048574;28;20017;-80
2021/06/09 08:52:02;;;;;;;15.30;11.73;;;;;;;;;;5055074;28;20039;-78
2021/06/09 08:54:29;;;;;;;15.30;11.70;;;;;;;;;;5049551;28;20021;-79
2021/06/09 08:56:54;;;;;;;17.08;15.20;;;;;;;;;;5052685;28;20013;-79
2021/06/09 08:59:22;;;;;;;15.02;12.55;;;;;;;;;;5057305;28;20430;-77
2021/06/09 09:01:48;;;;;;;14.27;12.40;;;;;;;;;;5063667;28;20112;-78
2021/06/09 09:04:13;;;;;;;14.02;12.50;;;;;;;;;;5050423;28;20107;-79
2021/06/09 09:06:39;;;;;;;19.83;13.45;;;;;;;;;;5034922;28;20501;-80
2021/06/09 09:09:04;;;;;;;17.98;13.63;;;;;;;;;;5057469;28;20017;-78
2021/06/09 09:11:29;;;;;;;17.10;12.95;;;;;;;;;;5058064;28;20147;-79
2021/06/09 09:13:55;;;;;;;16.67;12.48;;;;;;;;;;5064234;28;20058;-78
2021/06/09 09:16:20;;;;;;;15.35;12.77;;;;;;;;;;5051298;28;20021;-78
2021/06/09 09:18:57;;;;;;;17.83;12.50;;;;;;;;;;5049470;28;20103;-80
2021/06/09 09:21:37;;;;;;;17.80;14.00;;;;;;;;;;5057014;28;20024;-78
2021/06/09 09:24:05;;;;;;;16.02;12.13;;;;;;;;;;5053834;28;20067;-79
2021/06/09 09:26:34;;;;;;;15.33;11.93;;;;;;;;;;5045407;28;20033;-78
2021/06/09 09:29:11;;;;;;;13.82;10.50;;;;;;;;;;5050476;28;20040;-79
2021/06/09 09:32:03;;;;;;;18.17;12.98;;;;;;;;;;5062682;28;20060;-79
2021/06/09 09:34:29;;;;;;;15.27;12.18;;;;;;;;;;5051489;28;20479;-79
2021/06/09 09:37:02;;;;;;;12.75;11.43;;;;;;;;;;5038071;28;20033;-79
2021/06/09 09:39:27;;;;;;;15.65;12.30;;;;;;;;;;5055432;28;20017;-80
2021/06/09 09:41:52;;;;;;;15.50;11.47;;;;;;;;;;5057946;28;20013;-79
2021/06/09 09:44:20;;;;;;;16.40;12.50;;;;;;;;;;5032925;28;20712;-80
2021/06/09 09:46:53;;;;;;;12.73;10.85;;;;;;;;;;5057945;28;20346;-80
2021/06/09 09:49:19;;;;;;;14.75;11.48;;;;;;;;;;5056349;28;20021;-80
2021/06/09 09:51:44;;;;;;;19.90;13.85;;;;;;;;;;5045869;28;20369;-81
2021/06/09 09:54:10;;;;;;;15.25;12.40;;;;;;;;;;5068886;28;20456;-80
2021/06/09 09:56:36;;;;;;;16.17;12.63;;;;;;;;;;5055022;28;20688;-79
2021/06/09 09:59:07;;;;;;;15.63;12.73;;;;;;;;;;5061370;28;20013;-81
2021/06/09 10:01:34;;;;;;;16.30;12.73;;;;;;;;;;5070928;28;20107;-83
2021/06/09 10:03:59;;;;;;;17.55;12.70;;;;;;;;;;5061674;28;20364;-81
2021/06/09 10:06:29;;;;;;;16.33;11.85;;;;;;;;;;5052118;28;20037;-81
2021/06/09 10:08:56;;;;;;;14.80;11.75;;;;;;;;;;5052563;28;20403;-81
2021/06/09 10:11:22;;;;;;;13.00;10.70;;;;;;;;;;5059523;28;20057;-81
2021/06/09 10:13:48;;;;;;;15.63;11.07;;;;;;;;;;5061585;28;20025;-81
2021/06/09 10:16:24;;;;;;;13.25;11.10;;;;;;;;;;5060850;28;20021;-81
2021/06/09 10:18:59;;;;;;;12.98;11.57;;;;;;;;;;5051304;28;20017;-81
2021/06/09 10:21:24;;;;;;;14.15;11.25;;;;;;;;;;5050065;28;20568;-81
2021/06/09 10:23:50;;;;;;;15.25;11.30;;;;;;;;;;5059747;28;20029;-80
2021/06/09 10:26:17;;;;;;;15.25;11.90;;;;;;;;;;5048370;28;20033;-79
2021/06/09 10:29:01;;;;;;;13.23;10.13;;;;;;;;;;5064294;28;20080;-80
2021/06/09 10:31:28;;;;;;;11.60;9.80;;;;;;;;;;5062816;28;20013;-80
2021/06/09 10:33:53;;;;;;;11.23;8.80;;;;;;;;;;5065051;28;20060;-81
2021/06/09 10:36:19;;;;;;;12.98;8.95;;;;;;;;;;5042541;28;20025;-79
2021/06/09 10:38:45;;;;;;;10.18;8.98;;;;;;;;;;5043515;28;20028;-81
2021/06/09 10:41:11;;;;;;;14.13;8.52;;;;;;;;;;5044506;28;20817;-80
2021/06/09 10:43:37;;;;;;;9.02;7.10;;;;;;;;;;5054475;28;20456;-80
2021/06/09 10:46:03;;;;;;;9.70;7.22;;;;;;;;;;5064684;28;20064;-81
2021/06/09 10:48:29;;;;;;;11.02;7.95;;;;;;;;;;5070940;28;20009;-79
2021/06/09 10:50:54;;;;;;;12.05;9.77;;;;;;;;;;5076136;28;20083;-81
2021/06/09 10:53:19;;;;;;;9.82;8.65;;;;;;;;;;5058125;28;20013;-80
2021/06/09 10:55:45;;;;;;;10.38;7.57;;;;;;;;;;5053385;28;20025;-81
2021/06/09 10:58:10;;;;;;;10.50;8.65;;;;;;;;;;5049963;28;20413;-80
2021/06/09 11:00:35;;;;;;;9.45;8.45;;;;;;;;;;5057797;28;20047;-82
2021/06/09 11:03:00;;;;;;;12.38;8.38;;;;;;;;;;5033059;28;20036;-81
2021/06/09 11:05:26;;;;;;;9.30;8.00;;;;;;;;;;5055882;28;20037;-80
2021/06/09 11:07:52;;;;;;;8.50;7.40;;;;;;;;;;5051373;28;20295;-81
2021/06/09 11:10:38;;;;;;;9.00;7.95;;;;;;;;;;5063005;28;20125;-81
2021/06/09 11:13:04;;;;;;;8.40;6.80;;;;;;;;;;5045102;28;20388;-81
2021/06/09 11:15:34;;;;;;;9.80;6.90;;;;;;;;;;5064871;28;20024;-81
2021/06/09 11:18:00;;;;;;;10.07;6.88;;;;;;;;;;5053170;28;20025;-80
2021/06/09 11:20:53;;;;;;;8.65;7.75;;;;;;;;;;5064445;28;20403;-80
2021/06/09 11:23:24;;;;;;;11.00;7.63;;;;;;;;;;5058624;28;20036;-79
2021/06/09 11:25:50;;;;;;;9.23;7.40;;;;;;;;;;5050268;28;20207;-80
2021/06/09 11:28:17;;;;;;;9.00;7.75;;;;;;;;;;5049677;28;20467;-81
2021/06/09 11:30:42;;;;;;;9.93;8.50;;;;;;;;;;5061352;28;20024;-81
2021/06/09 11:33:09;;;;;;;10.18;7.80;;;;;;;;;;5055764;28;20399;-80
2021/06/09 11:35:43;;;;;;;9.98;7.90;;;;;;;;;;5056408;28;20013;-80
2021/06/09 11:38:11;;;;;;;11.23;9.10;;;;;;;;;;5068906;28;20035;-82
2021/06/09 11:40:46;;;;;;;11.10;7.70;;;;;;;;;;5050101;28;20021;-81
2021/06/09 11:43:19;;;;;;;12.85;7.75;;;;;;;;;;5060667;28;20036;-80
2021/06/09 11:45:59;;;;;;;8.95;7.47;;;;;;;;;;5037224;28;20415;-80
2021/06/09 11:48:25;;;;;;;;;;;;;;;;;;5060655;28;20479;-82
2021/06/09 11:50:53;;;;;;;13.20;8.75;;;;;;;;;;5057399;28;19912;-81
2021/06/09 11:53:36;;;;;;;9.45;8.23;;;;;;;;;;5054073;28;20108;-80
2021/06/09 11:56:13;;;;;;;8.27;7.35;;;;;;;;;;5057068;28;20054;-81
2021/06/09 11:58:38;;;;;;;8.18;7.38;;;;;;;;;;5063679;28;20108;-81
2021/06/09 12:01:05;;;;;;;8.40;6.90;;;;;;;;;;5049069;28;20139;-82
2021/06/09 12:03:30;;;;;;;8.73;6.65;;;;;;;;;;5060128;28;20090;-81
2021/06/09 12:06:14;;;;;;;10.15;6.78;;;;;;;;;;5061589;28;20036;-81
2021/06/09 12:08:40;;;;;;;8.75;6.40;;;;;;;;;;5068763;28;20028;-83
2021/06/09 12:11:05;;;;;;;7.63;6.80;;;;;;;;;;5055521;28;20494;-81
2021/06/09 12:13:33;;;;;;;9.48;7.25;;;;;;;;;;5050690;28;20036;-82
2021/06/09 12:16:03;;;;;;;8.25;6.93;;;;;;;;;;5024686;28;20032;-82
2021/06/09 12:18:28;;;;;;;8.82;7.15;;;;;;;;;;5042388;28;20036;-81
2021/06/09 12:21:01;;;;;;;7.72;6.78;;;;;;;;;;5049373;28;20390;-81
2021/06/09 12:23:26;;;;;;;10.27;7.13;;;;;;;;;;5067339;28;20019;-81
2021/06/09 12:25:51;;;;;;;9.80;7.10;;;;;;;;;;5049703;28;20041;-81
2021/06/09 12:28:17;;;;;;;8.07;6.23;;;;;;;;;;5050931;28;20645;-81
2021/06/09 12:30:43;;;;;;;8.20;6.85;;;;;;;;;;5054361;28;20488;-80
2021/06/09 12:33:09;;;;;;;7.45;6.45;;;;;;;;;;5066279;28;20037;-80
2021/06/09 12:35:34;;;;;;;8.43;6.03;;;;;;;;;;5053476;28;20017;-80
2021/06/09 12:38:00;;;;;;;9.45;7.20;;;;;;;;;;5040204;28;20037;-81
2021/06/09 12:40:49;;;;;;;7.22;6.05;;;;;;;;;;5054940;28;20480;-81
2021/06/09 12:43:14;;;;;;;9.02;6.50;;;;;;;;;;4970006;28;20042;-82
2021/06/09 12:45:42;;;;;;;7.20;6.40;;;;;;;;;;4969813;28;20046;-81
2021/06/09 12:48:08;;;;;;;7.10;6.40;;;;;;;;;;4964650;28;20078;-80
2021/06/09 12:50:38;;;;;;;8.70;6.35;;;;;;;;;;4970129;28;20074;-81
2021/06/09 12:53:08;;;;;;;8.35;6.50;;;;;;;;;;4970712;28;20115;-83
2021/06/09 12:55:36;;;;;;;8.60;6.45;;;;;;;;;;4956784;28;20026;-81
2021/06/09 12:58:03;;;;;;;9.00;6.88;;;;;;;;;;4971862;28;20034;-81
2021/06/09 13:00:31;;;;;;;7.57;6.75;;;;;;;;;;4965533;28;20396;-79
2021/06/09 13:03:09;;;;;;;9.23;6.65;;;;;;;;;;4966268;28;20058;-79
2021/06/09 13:05:34;;;;;;;8.05;6.60;;;;;;;;;;4983167;28;20039;-80
2021/06/09 13:08:15;;;;;;;8.43;7.33;;;;;;;;;;4967666;28;20194;-79
2021/06/09 13:10:41;;;;;;;9.20;6.57;;;;;;;;;;4969537;28;20277;-79
2021/06/09 13:13:07;;;;;;;9.30;6.32;;;;;;;;;;4969053;28;20085;-79
2021/06/09 13:15:33;;;;;;;8.93;7.00;;;;;;;;;;4967795;28;20026;-80
2021/06/09 13:18:00;;;;;;;9.00;8.13;;;;;;;;;;4965736;28;20400;-80
2021/06/09 13:20:27;;;;;;;12.75;9.13;;;;;;;;;;5013715;28;20617;-80
2021/06/09 13:22:53;;;;;;;13.02;8.80;;;;;;;;;;5038760;28;20040;-78
2021/06/09 13:25:20;;;;;;;11.75;8.23;;;;;;;;;;5042301;28;20038;-80
2021/06/09 13:27:51;;;;;;;10.30;8.13;;;;;;;;;;5052185;28;20021;-79
2021/06/09 13:30:20;;;;;;;11.02;8.90;;;;;;;;;;5045319;28;20405;-78
2021/06/09 13:32:47;;;;;;;11.20;8.87;;;;;;;;;;5049496;28;20025;-77
2021/06/09 13:35:20;;;;;;;13.90;9.70;;;;;;;;;;5050009;28;20279;-79
2021/06/09 13:37:47;;;;;;;12.85;9.13;;;;;;;;;;5047693;28;20064;-79
2021/06/09 13:40:19;;;;;;;14.23;9.95;;;;;;;;;;5049958;28;20049;-80
2021/06/09 13:42:47;;;;;;;10.55;8.07;;;;;;;;;;5060199;28;20017;-79
2021/06/09 13:45:35;;;;;;;9.90;8.10;;;;;;;;;;5048980;28;20119;-80
2021/06/09 13:48:02;;;;;;;11.15;8.57;;;;;;;;;;4967114;28;20039;-80
2021/06/09 13:50:28;;;;;;;12.35;8.40;;;;;;;;;;4971171;28;20039;-78
2021/06/09 13:53:04;;;;;;;10.52;8.48;;;;;;;;;;4968656;28;20447;-78
2021/06/09 13:55:36;;;;;;;10.85;8.68;;;;;;;;;;4946903;28;20061;-79
2021/06/09 13:58:01;;;;;;;11.93;8.65;;;;;;;;;;4967054;28;20030;-77
2021/06/09 14:00:32;;;;;;;9.50;7.57;;;;;;;;;;4965642;28;20037;-79
2021/06/09 14:02:57;;;;;;;11.15;8.43;;;;;;;;;;4964136;28;20026;-79
2021/06/09 14:05:23;;;;;;;11.75;8.68;;;;;;;;;;4961920;28;20065;-78
2021/06/09 14:07:48;;;;;;;9.98;7.70;;;;;;;;;;4968596;28;20030;-78
2021/06/09 14:10:15;;;;;;;9.37;7.30;;;;;;;;;;4972750;28;20089;-76
2021/06/09 14:12:43;;;;;;;10.13;6.88;;;;;;;;;;4970000;28;20293;-80
2021/06/09 14:15:10;;;;;;;11.13;7.43;;;;;;;;;;4970487;28;20026;-80
2021/06/09 14:17:36;;;;;;;10.07;6.28;;;;;;;;;;4969878;28;20086;-80
2021/06/09 14:20:05;;;;;;;10.55;7.40;;;;;;;;;;4969935;28;20379;-81
2021/06/09 14:22:32;;;;;;;9.68;6.80;;;;;;;;;;4968730;28;20026;-81
2021/06/09 14:25:06;;;;;;;11.63;7.47;;;;;;;;;;5009487;28;20064;-79
2021/06/09 14:27:31;;;;;;;9.27;7.30;;;;;;;;;;5052402;28;20561;-80